Fredericksburg, TX

11:19 PM CDT on May 28, 2017 (GMT -0500)
Fredericksburg

Weather History for KT82 - July, 2013

Change the Weather History Date:

Wednesday, July 31, 2013

  Actual Average (KSAT) Record (KSAT)
Temperature  
Mean Temperature 86 °F -  
Max Temperature 99 °F 94 °F 103 °F (1948)
Min Temperature 72 °F 74 °F 65 °F (1965)
Cooling Degree Days 20    
Growing Degree Days 36 (Base 50)    
Moisture  
Dew Point 59 °F    
Average Humidity 47    
Maximum Humidity 82    
Minimum Humidity 18    
Precipitation  
Precipitation 0.00 in - - ()
Sea Level Pressure  
Sea Level Pressure 30.08 in    
Wind  
Wind Speed 6 mph (South)    
Max Wind Speed 12 mph    
Max Gust Speed 16 mph    
Visibility 10 miles    
Events      
Averages and records for this station are not official NWS values.
T = Trace of Precipitation, MM = Missing Value Source: NWS Daily Summary

Daily Weather History Graph

Daily Weather History Graph

Search for Another Location

Airport or City:

Trip Planner

Search our weather history database for the weather conditions in past years. The results will help you decide how hot, cold, wet, or windy it might be!

Date:

Astronomy

Jul. 31, 2013 Rise Set
Actual Time 6:53 AM CDT 8:29 PM CDT
Civil Twilight 6:27 AM CDT 8:55 PM CDT
Nautical Twilight 5:56 AM CDT 9:27 PM CDT
Astronomical Twilight 5:23 AM CDT 9:59 PM CDT
Moon 1:49 AM CDT (7/31) 3:46 PM CDT (7/31)
Length of Visible Light 14h 28m
Length of Day
13h 36m
Waning Crescent, 31% of the Moon is Illuminated
Jul 31
Waning Crescent
Aug 6
New
Aug 14
First Quarter
Aug 20
Full
Aug 28
Last Quarter

Hourly Weather History & Observations

Time (CDT) Temp. Heat Index Dew Point Humidity Pressure Visibility Wind Dir Wind Speed Gust Speed Precip Events Conditions
12:15 AM 81.0 °F 82.7 °F 64.8 °F 58% 30.10 in 10.0 mi South 4.6 mph - N/A   Clear
12:35 AM 80.4 °F 82.4 °F 65.8 °F 61% 30.11 in 10.0 mi South 5.8 mph - N/A   Clear
12:55 AM 79.7 °F - 66.6 °F 64% 30.11 in 10.0 mi South 8.1 mph - N/A   Clear
1:15 AM 79.0 °F - 67.1 °F 67% 30.11 in 10.0 mi South 5.8 mph - N/A   Clear
1:55 AM 77.9 °F - 68.0 °F 71% 30.11 in 10.0 mi SSE 4.6 mph - N/A   Clear
2:15 AM 77.2 °F - 68.0 °F 73% 30.11 in 10.0 mi South 4.6 mph - N/A   Clear
2:35 AM 77.0 °F - 67.6 °F 73% 30.11 in 10.0 mi South 6.9 mph - N/A   Clear
2:55 AM 77.0 °F - 67.3 °F 72% 30.11 in 10.0 mi South 5.8 mph - N/A   Clear
3:15 AM 77.0 °F - 67.1 °F 71% 30.11 in 10.0 mi South 6.9 mph - N/A   Clear
3:35 AM 76.6 °F - 66.2 °F 70% 30.10 in 10.0 mi South 8.1 mph - N/A   Clear
3:55 AM 76.1 °F - 66.0 °F 71% 30.10 in 10.0 mi SSW 6.9 mph - N/A   Clear
4:15 AM 75.7 °F - 65.8 °F 71% 30.10 in 10.0 mi South 5.8 mph - N/A   Clear
4:35 AM 75.0 °F - 66.2 °F 74% 30.10 in 10.0 mi South 5.8 mph - N/A   Clear
4:55 AM 74.7 °F - 66.6 °F 76% 30.10 in 10.0 mi SSW 6.9 mph - N/A   Clear
5:15 AM 74.1 °F - 66.7 °F 78% 30.10 in 10.0 mi SSW 8.1 mph - N/A   Clear
5:35 AM 73.6 °F - 67.1 °F 80% 30.10 in 10.0 mi SSW 8.1 mph - N/A   Clear
5:55 AM 73.0 °F - 67.1 °F 82% 30.11 in 10.0 mi SW 6.9 mph - N/A   Clear
6:15 AM 72.9 °F - 66.7 °F 81% 30.11 in 10.0 mi SSW 6.9 mph - N/A   Clear
6:35 AM 72.5 °F - 66.6 °F 82% 30.12 in 10.0 mi SSW 5.8 mph - N/A   Clear
6:55 AM 72.5 °F - 66.4 °F 81% 30.12 in 10.0 mi SW 6.9 mph - N/A   Clear
7:15 AM 72.1 °F - 66.4 °F 82% 30.12 in 10.0 mi SSW 5.8 mph - N/A   Clear
7:35 AM 72.7 °F - 66.6 °F 81% 30.13 in 10.0 mi SW 5.8 mph - N/A   Clear
7:55 AM 73.2 °F - 66.7 °F 80% 30.14 in 10.0 mi SW 5.8 mph - N/A   Clear
8:15 AM 73.6 °F - 66.7 °F 79% 30.14 in 10.0 mi SW 8.1 mph - N/A   Clear
8:35 AM 74.7 °F - 66.2 °F 75% 30.15 in 10.0 mi SSW 6.9 mph - N/A   Clear
8:55 AM 75.4 °F - 65.7 °F 72% 30.14 in 10.0 mi SSW 9.2 mph - N/A   Clear
9:15 AM 76.8 °F - 64.4 °F 65% 30.15 in 10.0 mi SW 9.2 mph - N/A   Clear
9:35 AM 78.1 °F - 63.1 °F 60% 30.15 in 10.0 mi SSW 9.2 mph - N/A   Clear
9:55 AM 79.0 °F - 62.8 °F 57% 30.14 in 10.0 mi SW 10.4 mph - N/A   Clear
10:15 AM 80.6 °F 81.6 °F 61.5 °F 52% 30.15 in 10.0 mi SW 11.5 mph - N/A   Clear
10:35 AM 82.6 °F 83.1 °F 61.2 °F 48% 30.14 in 10.0 mi SW 11.5 mph - N/A   Clear
10:55 AM 85.3 °F 85.4 °F 61.0 °F 44% 30.14 in 10.0 mi SSW 10.4 mph - N/A   Clear
11:15 AM 86.0 °F 85.4 °F 59.2 °F 40% 30.13 in 10.0 mi SSW 10.4 mph - N/A   Clear
11:35 AM 87.3 °F 86.1 °F 57.6 °F 36% 30.13 in 10.0 mi SW 9.2 mph 16.1 mph N/A   Clear
11:55 AM 87.6 °F 86.3 °F 56.7 °F 35% 30.13 in 10.0 mi SSW 8.1 mph - N/A   Clear
12:15 PM 87.8 °F 86.3 °F 56.3 °F 34% 30.13 in 10.0 mi SSW 8.1 mph - N/A   Clear
12:35 PM 88.9 °F 86.9 °F 54.5 °F 31% 30.13 in 10.0 mi SSW 8.1 mph - N/A   Clear
12:55 PM 90.0 °F 88.1 °F 55.9 °F 31% 30.12 in 10.0 mi WSW 4.6 mph - N/A   Clear
1:15 PM 92.8 °F 90.4 °F 53.1 °F 26% 30.10 in 10.0 mi South 8.1 mph - N/A   Clear
1:35 PM 93.4 °F - 50.0 °F 23% 30.10 in 10.0 mi SSW 6.9 mph - N/A   Clear
1:55 PM 93.9 °F - 51.8 °F 24% 30.10 in 10.0 mi SW 5.8 mph - N/A   Clear
2:15 PM 94.8 °F - 51.3 °F 23% 30.09 in 10.0 mi Calm Calm - N/A   Clear
2:35 PM 96.6 °F - 52.3 °F 22% 30.08 in 10.0 mi South 6.9 mph - N/A   Clear
2:55 PM 97.7 °F - 51.3 °F 21% 30.08 in 10.0 mi SE 5.8 mph - N/A   Clear
3:15 PM 97.5 °F - 51.1 °F 21% 30.07 in 10.0 mi Calm Calm - N/A   Clear
3:35 PM 96.8 °F - 51.8 °F 22% 30.06 in 10.0 mi NW 3.5 mph - N/A   Clear
3:55 PM 98.6 °F - 51.1 °F 20% 30.05 in 10.0 mi SSE 3.5 mph - N/A   Clear
4:15 PM 98.1 °F - 52.3 °F 21% 30.04 in 10.0 mi ESE 6.9 mph - N/A   Clear
4:35 PM 97.7 °F - 52.9 °F 22% 30.03 in 10.0 mi SSW 3.5 mph - N/A   Clear
4:55 PM 99.7 °F - 52.7 °F 21% 30.03 in 10.0 mi ENE 10.4 mph - N/A   Clear
5:15 PM 98.1 °F - 52.2 °F 21% 30.02 in 10.0 mi NE 3.5 mph - N/A   Clear
5:35 PM 99.3 °F - 50.2 °F 19% 30.02 in 10.0 mi NE 3.5 mph - N/A   Clear
5:55 PM 98.4 °F - 51.1 °F 20% 30.00 in 10.0 mi ESE 4.6 mph - N/A   Clear
6:15 PM 99.3 °F - 50.7 °F 19% 30.00 in 10.0 mi ESE 5.8 mph - N/A   Clear
6:35 PM 98.6 °F - 50.0 °F 19% 29.99 in 10.0 mi SE 4.6 mph - N/A   Clear
6:55 PM 98.2 °F - 48.6 °F 18% 29.99 in 10.0 mi ESE 3.5 mph - N/A   Clear
7:15 PM 97.2 °F - 51.3 °F 21% 29.99 in 10.0 mi South 5.8 mph - N/A   Clear
7:35 PM 96.3 °F - 51.8 °F 22% 29.99 in 10.0 mi SE 4.6 mph - N/A   Clear
7:55 PM 95.4 °F - 52.7 °F 24% 30.00 in 10.0 mi ESE 4.6 mph - N/A   Clear
8:15 PM 93.7 °F - 52.0 °F 24% 30.01 in 10.0 mi SE 5.8 mph - N/A   Clear
8:35 PM 92.1 °F - 52.7 °F 26% 30.01 in 10.0 mi SE 4.6 mph - N/A   Clear
8:55 PM 90.7 °F - 52.7 °F 27% 30.02 in 10.0 mi SE 3.5 mph - N/A   Clear
9:15 PM 89.1 °F - 52.7 °F 29% 30.02 in 10.0 mi Calm Calm - N/A   Clear
9:35 PM 87.8 °F 85.5 °F 53.1 °F 30% 30.03 in 10.0 mi Calm Calm - N/A   Clear
9:55 PM 86.7 °F - 52.9 °F 31% 30.04 in 10.0 mi Calm Calm - N/A   Clear
10:15 PM 82.2 °F 81.4 °F 54.0 °F 38% 30.04 in 10.0 mi Calm Calm - N/A   Clear
10:35 PM 77.5 °F - 55.6 °F 47% 30.05 in 10.0 mi Calm Calm - N/A   Clear
10:55 PM 79.9 °F - 55.2 °F 43% 30.05 in 10.0 mi Calm Calm - N/A   Clear
11:15 PM 78.8 °F - 56.3 °F 46% 30.05 in 10.0 mi Calm Calm - N/A   Clear
11:35 PM 77.0 °F - 57.0 °F 50% 30.06 in 10.0 mi Calm Calm - N/A   Clear
11:55 PM 77.2 °F - 56.5 °F 49% 30.05 in 10.0 mi Calm Calm - N/A   Clear